Terminal Aerodrome Forecast
Issued by NWS Cleveland, OH

Home | Current Version | Previous Version | Graphics & Text | Print | Product List | Glossary On
Versions: 1 2 3 4 5 6 7 8 9 10 11 12 13 14 15 16 17 18 19 20 21 22 23 24
000
FTUS41 KCLE 301734
TAFCLE
TAF
KCLE 301734Z 3018/0124 10008KT P6SM OVC150
      TEMPO 3020/3022 -RA OVC070
     FM302200 08010G18KT 6SM -RA OVC035
     FM010000 10010KT 3SM -RA BR OVC015
     FM010500 14012KT 3SM -RA BR OVC008
     FM011300 20010KT 6SM BR OVC012=

USA.gov is the U.S. government's official web portal to all federal, state and local government web resources and services.